WetterOnline ( http://www.wetteronline.de )

Wetter aktuell Esselbach

Aktuelles Wetter: Würzburg (272m)

6-stündlich | Neueste Meldungen
Ortszeit Temperatur Wetter
Mi, 26.09. 8:00 2.7° C wolkig
Mi, 26.09. 2:00 4.1° C wolkig
Di, 25.09. 20:00 10.4° C wolkig
Di, 25.09. 14:00 13.8° C bewölkt
Di, 25.09. 8:00 4.1° C wolkenlos
Di, 25.09. 2:00 7.6° C leicht bewölkt
Mo, 24.09. 20:00 11.9° C fast wolkenlos
Mo, 24.09. 14:00 12.9° C bewölkt
Ortszeit Temperatur Wetter
Mi, 26.09. 10:00 7.4° C fast wolkenlos
Mi, 26.09. 9:50 7.4° C fast wolkenlos
Mi, 26.09. 9:40 7.5° C leicht bewölkt
Mi, 26.09. 9:30 6.4° C wolkig
Mi, 26.09. 9:20 6.4° C wolkig
Mi, 26.09. 9:10 5.1° C wolkig
Mi, 26.09. 9:00 5.0° C leicht bewölkt
Mi, 26.09. 8:30 3.9° C leicht bewölkt
Mi, 26.09. 8:00 2.7° C wolkig
Mi, 26.09. 7:30 2.5° C bedeckt
Mi, 26.09. 7:00 2.3° C wolkig
Ortszeit Relative Feuchte Sichtweite
Mi, 26.09. 8:00 90% 30 km
Mi, 26.09. 2:00 87% 50 km
Di, 25.09. 20:00 55% 70 km
Di, 25.09. 14:00 43% 60 km
Di, 25.09. 8:00 93% 22 km
Di, 25.09. 2:00 76% 70 km
Mo, 24.09. 20:00 54% 70 km
Mo, 24.09. 14:00 41% 70 km
Ortszeit Relative Feuchte Sichtweite
Mi, 26.09. 10:00 72% 35 km
Mi, 26.09. 9:50 72% -
Mi, 26.09. 9:40 74% -
Mi, 26.09. 9:30 72% 45 km
Mi, 26.09. 9:20 72% -
Mi, 26.09. 9:10 78% -
Mi, 26.09. 9:00 83% 29 km
Mi, 26.09. 8:30 84% 35 km
Mi, 26.09. 8:00 90% 30 km
Mi, 26.09. 7:30 90% 40 km
Mi, 26.09. 7:00 94% 40 km
Ortszeit Niederschlagsmenge Niederschlagsart
Mi, 26.09. 8:00 0.0 l/m2 in 12 Std. -
Mi, 26.09. 2:00 0.0 l/m2 in 6 Std. -
Di, 25.09. 20:00 0.0 l/m2 in 12 Std. -
Di, 25.09. 14:00 0.0 l/m2 in 6 Std. -
Di, 25.09. 8:00 0.0 l/m2 in 12 Std. -
Di, 25.09. 2:00 0.0 l/m2 in 6 Std. -
Mo, 24.09. 20:00 0.0 l/m2 in 12 Std. -
Mo, 24.09. 14:00 0.0 l/m2 in 6 Std. -
Ortszeit Niederschlagsmenge Niederschlagsart
Mi, 26.09. 10:00 0.0 l/m2 in 1 Std. -
Mi, 26.09. 9:50 keine Meldung -
Mi, 26.09. 9:40 keine Meldung -
Mi, 26.09. 9:30 0.0 l/m2 in 1 Std. -
Mi, 26.09. 9:20 keine Meldung -
Mi, 26.09. 9:10 keine Meldung -
Mi, 26.09. 9:00 0.0 l/m2 in 1 Std. -
Mi, 26.09. 8:30 0.0 l/m2 in 1 Std. -
Mi, 26.09. 8:00 0.0 l/m2 in 1 Std. -
Mi, 26.09. 7:30 0.0 l/m2 in 1 Std. -
Mi, 26.09. 7:00 0.0 l/m2 in 1 Std. -
Ortszeit Stärke Spitze Richtung
km/h Bft. km/h Grad Sektor
Mi, 26.09. 8:00 4 1 11 70° O
Mi, 26.09. 2:00 4 1 14 310° NW
Di, 25.09. 20:00 11 2 26 90° O
Di, 25.09. 14:00 7 2 18 50° NO
Di, 25.09. 8:00 2 1 13 310° NW
Di, 25.09. 2:00 7 2 22 330° NW
Mo, 24.09. 20:00 13 3 44 320° NW
Mo, 24.09. 14:00 18 3 40 340° N
Ortszeit Stärke Spitze Richtung
km/h Bft. km/h Grad Sektor
Mi, 26.09. 10:00 6 1 7 270° W
Mi, 26.09. 9:50 6 1 - 270° W
Mi, 26.09. 9:40 6 1 - 230° SW
Mi, 26.09. 9:30 4 1 7 150° SO
Mi, 26.09. 9:20 4 1 - 150° SO
Mi, 26.09. 9:10 4 1 - 240° SW
Mi, 26.09. 9:00 4 1 11 160° S
Mi, 26.09. 8:30 4 1 11 120° SO
Mi, 26.09. 8:00 4 1 11 70° O
Mi, 26.09. 7:30 7 2 11 40° NO
Mi, 26.09. 7:00 4 1 11 40° NO
Ortszeit Untergrenze Bedeckung Gattung
total tief tief mittel hoch
Mi, 26.09. 8:00 6300 m 7/8 3/8 - - -
Mi, 26.09. 2:00 10500 m 8/8 0/8 - - -
Di, 25.09. 20:00 10500 m 7/8 0/8 - - -
Di, 25.09. 14:00 1350 m 7/8 - - - -
Di, 25.09. 8:00 - 0/8 0/8 - - -
Di, 25.09. 2:00 1110 m 2/8 2/8 - - -
Mo, 24.09. 20:00 2400 m 1/8 1/8 - - -
Mo, 24.09. 14:00 1500 m 7/8 7/8 - - -
Ortszeit Bedeckungsgrad in Achtel und Wolkenuntergrenze
Mi, 26.09. 10:00 1(10500m)
Mi, 26.09. 9:50 1(10500m) 1(12000m)
Mi, 26.09. 9:40 3(10500m) 4(12000m)
Mi, 26.09. 9:30 7(10500m) 5(10500m)
Mi, 26.09. 9:20 7(10500m)
Mi, 26.09. 9:10 1(7200m) 8(10500m)
Mi, 26.09. 9:00 6(7200m) 6(10500m) 7(10500m)
Mi, 26.09. 8:30 1(6900m) 3(8400m)
Mi, 26.09. 8:00 3(6300m) 5(7500m) 7(8400m)
Mi, 26.09. 7:30 8(6600m) 8(9000m) 8(10500m)
Mi, 26.09. 7:00 4(6900m) 5(7800m) 7(9000m)
Ortszeit Luftdruck NN (hPa) Tendenz (hPa in 3 Std.)
Mi, 26.09. 8:00 1038 + 0,1
Mi, 26.09. 2:00 1039 - 0,7
Di, 25.09. 20:00 1039 0,0
Di, 25.09. 14:00 1039 - 0,4
Di, 25.09. 8:00 1039 + 1,1
Di, 25.09. 2:00 1037 + 1,2
Mo, 24.09. 20:00 1033 + 0,9
Mo, 24.09. 14:00 1033 + 0,2
Ortszeit Luftdruck NN (hPa) Tendenz (hPa in 3 Std.)
Mi, 26.09. 10:00 1037 0,0
Mi, 26.09. 9:50 1037 keine Meldung
Mi, 26.09. 9:40 1037 keine Meldung
Mi, 26.09. 9:30 1037 + 0,1
Mi, 26.09. 9:20 1037 keine Meldung
Mi, 26.09. 9:10 1037 keine Meldung
Mi, 26.09. 9:00 1038 + 0,3
Mi, 26.09. 8:30 1038 0,0
Mi, 26.09. 8:00 1038 + 0,1
Mi, 26.09. 7:30 1038 - 0,3
Mi, 26.09. 7:00 1038 - 0,7
Ortszeit Schneehöhe (cm)
Mi, 26.09. 8:00 -
Mi, 26.09. 2:00 -
Di, 25.09. 20:00 -
Di, 25.09. 14:00 -
Di, 25.09. 8:00 -
Di, 25.09. 2:00 -
Mo, 24.09. 20:00 -
Mo, 24.09. 14:00 -
Ortszeit Schneehöhe (cm)
Mi, 26.09. 10:00 -
Mi, 26.09. 9:50 -
Mi, 26.09. 9:40 -
Mi, 26.09. 9:30 -
Mi, 26.09. 9:20 -
Mi, 26.09. 9:10 -
Mi, 26.09. 9:00 -
Mi, 26.09. 8:30 -
Mi, 26.09. 8:00 -
Mi, 26.09. 7:30 -
Mi, 26.09. 7:00 -
Link zu dieser Seite / Seite empfehlen

Das Wetter in ...